Tropical Cyclones
[Index]
Season 2017-2018 Tropical Cyclone NORA Track Map
Season 2017-2018 Summaries: [BoM-AU] [JTWC-AU] [JTWC-SIO] [JTWC-SPAC] [JTWC-SH]
<<- Previous TC | JTWC 2017-2018 Season | Next TC ->>

click for intensity scale information  Lat/long Grid: Show Hide

 Date Labels: Show Hide

Joint Typhoon Warning Centre Cyclone Data

Name: NORA

22 Mar 2018 00:00 UTC to 26 Mar 2018 06:00 UTC

    date/time    lat    long     hPa   cat  kts
2018-03-22 00    9.9   135.7    1000         30          
2018-03-22 06    9.7   136.3     997         35          
2018-03-22 12    9.7   136.4     997         35          
2018-03-22 18    9.7   136.5     991    1    45          
2018-03-23 00    9.9   137.0     988    1    50          
2018-03-23 00    9.9   137.0     988    1    50          
2018-03-23 06   10.5   138.0     977    2    70          
2018-03-23 06   10.5   138.0     977    2    70          
2018-03-23 06   10.5   138.0     977    2    70          
2018-03-23 12   11.2   138.7     961    3    95          
2018-03-23 12   11.2   138.7     961    3    95          
2018-03-23 12   11.2   138.7     961    3    95          
2018-03-23 18   11.9   139.5     956    4   100          
2018-03-23 18   11.9   139.5     956    4   100          
2018-03-23 18   11.9   139.5     956    4   100          
2018-03-24 00   12.6   140.2     958    4   100          
2018-03-24 00   12.6   140.2     958    4   100          
2018-03-24 00   12.6   140.2     958    4   100          
2018-03-24 06   13.5   141.0     964    3    90          
2018-03-24 06   13.5   141.0     964    3    90          
2018-03-24 06   13.5   141.0     964    3    90          
2018-03-24 12   14.4   141.4     972    3    80          
2018-03-24 12   14.4   141.4     972    3    80          
2018-03-24 12   14.4   141.4     972    3    80          
2018-03-24 18   15.4   141.5     984    2    65          
2018-03-24 18   15.4   141.5     984    2    65          
2018-03-24 18   15.4   141.5     984    2    65          
2018-03-25 00   16.3   141.6     993    1    50          
2018-03-25 00   16.3   141.6     993    1    50          
2018-03-25 06   16.7   141.8    1002         30          
2018-03-25 12   17.0   142.0    1003         25          
2018-03-25 18   17.1   141.9    1004         25          
2018-03-26 00   17.0   141.8    1004         25          
2018-03-26 06   16.8   141.9    1004         25          
Winds are 1-min average.

Tropical cyclone tracks developed by Michael Bath using data from the Joint Typhoon Warning Centre Best Tracks and Google Maps.


Document: tropical_cyclone_nora.htm
Updated: 17 June 2020
[Australian Severe Weather index] [Copyright Notice] [Email Contacts] [Search This Site] [Privacy Policy]


Main Index Home Page Stock Weather Photos Extreme Storms Discussion Storm News and Storm Chasing Reports Tropical Cyclones / Hurricanes / Typhoons Weather Data and Links Wild Fires / Bushfires Weather Observation Techniques Weather Picture Catalogue Tornado Pictures and Reports Stock Video Footage and DVDs for sale